sensor_id;sensor_type;location;lat;lon;timestamp;temperature;humidity
5226;DHT22;2632;51.666;7.146;2023-10-31T00:00:49;14.00;99.90
5226;DHT22;2632;51.666;7.146;2023-10-31T00:03:17;14.10;99.90
5226;DHT22;2632;51.666;7.146;2023-10-31T00:05:44;14.10;99.90
5226;DHT22;2632;51.666;7.146;2023-10-31T00:08:10;14.00;99.90
5226;DHT22;2632;51.666;7.146;2023-10-31T00:10:37;13.90;99.90
5226;DHT22;2632;51.666;7.146;2023-10-31T00:13:04;14.00;99.90
5226;DHT22;2632;51.666;7.146;2023-10-31T00:15:31;13.90;99.90
5226;DHT22;2632;51.666;7.146;2023-10-31T00:17:57;13.90;99.90
5226;DHT22;2632;51.666;7.146;2023-10-31T00:20:24;13.90;99.90
5226;DHT22;2632;51.666;7.146;2023-10-31T00:22:51;13.90;99.90
5226;DHT22;2632;51.666;7.146;2023-10-31T00:25:17;13.80;99.90
5226;DHT22;2632;51.666;7.146;2023-10-31T00:27:44;13.80;99.90
5226;DHT22;2632;51.666;7.146;2023-10-31T00:30:11;13.70;99.90
5226;DHT22;2632;51.666;7.146;2023-10-31T00:32:38;13.70;99.90
5226;DHT22;2632;51.666;7.146;2023-10-31T00:35:05;13.40;99.90
5226;DHT22;2632;51.666;7.146;2023-10-31T00:37:32;13.30;99.90
5226;DHT22;2632;51.666;7.146;2023-10-31T00:39:58;13.10;99.90
5226;DHT22;2632;51.666;7.146;2023-10-31T00:42:25;13.00;99.90
5226;DHT22;2632;51.666;7.146;2023-10-31T00:44:52;13.00;99.90
5226;DHT22;2632;51.666;7.146;2023-10-31T00:47:18;12.80;99.90
5226;DHT22;2632;51.666;7.146;2023-10-31T00:49:45;12.80;99.90
5226;DHT22;2632;51.666;7.146;2023-10-31T00:52:12;12.80;99.90
5226;DHT22;2632;51.666;7.146;2023-10-31T00:54:38;12.70;99.90
5226;DHT22;2632;51.666;7.146;2023-10-31T00:57:05;12.60;99.90
5226;DHT22;2632;51.666;7.146;2023-10-31T00:59:32;12.70;99.90
5226;DHT22;2632;51.666;7.146;2023-10-31T01:01:58;12.50;99.90
5226;DHT22;2632;51.666;7.146;2023-10-31T01:04:25;12.50;99.90
5226;DHT22;2632;51.666;7.146;2023-10-31T01:06:52;12.50;99.90
5226;DHT22;2632;51.666;7.146;2023-10-31T01:09:19;12.50;99.90
5226;DHT22;2632;51.666;7.146;2023-10-31T01:11:45;12.40;99.90
5226;DHT22;2632;51.666;7.146;2023-10-31T01:14:12;12.40;99.90
5226;DHT22;2632;51.666;7.146;2023-10-31T01:16:42;12.30;99.90
5226;DHT22;2632;51.666;7.146;2023-10-31T01:19:09;12.10;99.90
5226;DHT22;2632;51.666;7.146;2023-10-31T01:21:36;12.20;99.90
5226;DHT22;2632;51.666;7.146;2023-10-31T01:24:02;12.20;99.90
5226;DHT22;2632;51.666;7.146;2023-10-31T01:26:29;12.20;99.90
5226;DHT22;2632;51.666;7.146;2023-10-31T01:28:56;12.20;99.90
5226;DHT22;2632;51.666;7.146;2023-10-31T01:31:23;12.20;99.90
5226;DHT22;2632;51.666;7.146;2023-10-31T01:33:49;12.20;99.90
5226;DHT22;2632;51.666;7.146;2023-10-31T01:36:16;12.20;99.90
5226;DHT22;2632;51.666;7.146;2023-10-31T01:38:44;12.10;99.90
5226;DHT22;2632;51.666;7.146;2023-10-31T01:41:12;12.10;99.90
5226;DHT22;2632;51.666;7.146;2023-10-31T01:43:39;12.10;99.90
5226;DHT22;2632;51.666;7.146;2023-10-31T01:46:07;12.10;99.90
5226;DHT22;2632;51.666;7.146;2023-10-31T01:48:34;12.10;99.90
5226;DHT22;2632;51.666;7.146;2023-10-31T01:51:02;12.00;99.90
5226;DHT22;2632;51.666;7.146;2023-10-31T01:53:32;12.00;99.90
5226;DHT22;2632;51.666;7.146;2023-10-31T01:56:00;11.90;99.90
5226;DHT22;2632;51.666;7.146;2023-10-31T01:58:36;12.00;99.90
5226;DHT22;2632;51.666;7.146;2023-10-31T02:01:04;11.90;99.90
5226;DHT22;2632;51.666;7.146;2023-10-31T02:03:31;12.00;99.90
5226;DHT22;2632;51.666;7.146;2023-10-31T02:05:59;11.90;99.90
5226;DHT22;2632;51.666;7.146;2023-10-31T02:08:26;11.90;99.90
5226;DHT22;2632;51.666;7.146;2023-10-31T02:10:53;12.00;99.90
5226;DHT22;2632;51.666;7.146;2023-10-31T02:13:20;12.00;99.90
5226;DHT22;2632;51.666;7.146;2023-10-31T02:15:46;11.90;99.90
5226;DHT22;2632;51.666;7.146;2023-10-31T02:18:14;11.90;99.90
5226;DHT22;2632;51.666;7.146;2023-10-31T02:20:41;11.80;99.90
5226;DHT22;2632;51.666;7.146;2023-10-31T02:23:08;11.90;99.90
5226;DHT22;2632;51.666;7.146;2023-10-31T02:25:34;11.80;99.90
5226;DHT22;2632;51.666;7.146;2023-10-31T02:28:01;11.80;99.90
5226;DHT22;2632;51.666;7.146;2023-10-31T02:30:28;11.90;99.90
5226;DHT22;2632;51.666;7.146;2023-10-31T02:32:55;11.90;99.90
5226;DHT22;2632;51.666;7.146;2023-10-31T02:35:22;11.90;99.90
5226;DHT22;2632;51.666;7.146;2023-10-31T02:37:49;11.90;99.90
5226;DHT22;2632;51.666;7.146;2023-10-31T02:40:16;11.90;99.90
5226;DHT22;2632;51.666;7.146;2023-10-31T02:42:42;11.90;99.90
5226;DHT22;2632;51.666;7.146;2023-10-31T02:45:09;11.90;99.90
5226;DHT22;2632;51.666;7.146;2023-10-31T02:47:36;11.80;99.90
5226;DHT22;2632;51.666;7.146;2023-10-31T02:50:03;11.90;99.90
5226;DHT22;2632;51.666;7.146;2023-10-31T02:52:30;11.90;99.90
5226;DHT22;2632;51.666;7.146;2023-10-31T02:54:57;11.80;99.90
5226;DHT22;2632;51.666;7.146;2023-10-31T02:57:24;11.90;99.90
5226;DHT22;2632;51.666;7.146;2023-10-31T02:59:50;11.90;99.90
5226;DHT22;2632;51.666;7.146;2023-10-31T03:02:17;11.90;99.90
5226;DHT22;2632;51.666;7.146;2023-10-31T03:04:43;11.90;99.90
5226;DHT22;2632;51.666;7.146;2023-10-31T03:07:10;11.90;99.90
5226;DHT22;2632;51.666;7.146;2023-10-31T03:09:37;11.90;99.90
5226;DHT22;2632;51.666;7.146;2023-10-31T03:12:04;11.90;99.90
5226;DHT22;2632;51.666;7.146;2023-10-31T03:14:30;11.90;99.90
5226;DHT22;2632;51.666;7.146;2023-10-31T03:16:57;11.90;99.90
5226;DHT22;2632;51.666;7.146;2023-10-31T03:19:24;11.90;99.90
5226;DHT22;2632;51.666;7.146;2023-10-31T03:21:50;11.90;99.90
5226;DHT22;2632;51.666;7.146;2023-10-31T03:24:17;11.90;99.90
5226;DHT22;2632;51.666;7.146;2023-10-31T03:26:44;11.80;99.90
5226;DHT22;2632;51.666;7.146;2023-10-31T03:29:11;11.80;99.90
5226;DHT22;2632;51.666;7.146;2023-10-31T03:31:37;11.80;99.90
5226;DHT22;2632;51.666;7.146;2023-10-31T03:34:04;11.90;99.90
5226;DHT22;2632;51.666;7.146;2023-10-31T03:36:31;11.90;99.90
5226;DHT22;2632;51.666;7.146;2023-10-31T03:38:57;11.90;99.90
5226;DHT22;2632;51.666;7.146;2023-10-31T03:41:24;11.80;99.90
5226;DHT22;2632;51.666;7.146;2023-10-31T03:43:51;11.80;99.90
5226;DHT22;2632;51.666;7.146;2023-10-31T03:46:17;11.80;99.90
5226;DHT22;2632;51.666;7.146;2023-10-31T03:48:44;11.90;99.90
5226;DHT22;2632;51.666;7.146;2023-10-31T03:51:11;11.70;99.90
5226;DHT22;2632;51.666;7.146;2023-10-31T03:53:38;11.70;99.90
5226;DHT22;2632;51.666;7.146;2023-10-31T03:56:04;11.80;99.90
5226;DHT22;2632;51.666;7.146;2023-10-31T03:58:31;11.70;99.90
5226;DHT22;2632;51.666;7.146;2023-10-31T04:00:58;11.80;99.90
5226;DHT22;2632;51.666;7.146;2023-10-31T04:03:25;11.70;99.90
5226;DHT22;2632;51.666;7.146;2023-10-31T04:05:51;11.80;99.90
5226;DHT22;2632;51.666;7.146;2023-10-31T04:08:18;11.80;99.90
5226;DHT22;2632;51.666;7.146;2023-10-31T04:10:46;11.90;99.90
5226;DHT22;2632;51.666;7.146;2023-10-31T04:13:12;11.90;99.90
5226;DHT22;2632;51.666;7.146;2023-10-31T04:15:39;11.90;99.90
5226;DHT22;2632;51.666;7.146;2023-10-31T04:18:06;11.80;99.90
5226;DHT22;2632;51.666;7.146;2023-10-31T04:20:32;11.90;99.90
5226;DHT22;2632;51.666;7.146;2023-10-31T04:22:59;11.90;99.90
5226;DHT22;2632;51.666;7.146;2023-10-31T04:25:26;11.80;99.90
5226;DHT22;2632;51.666;7.146;2023-10-31T04:27:55;11.80;99.90
5226;DHT22;2632;51.666;7.146;2023-10-31T04:30:22;11.80;99.90
5226;DHT22;2632;51.666;7.146;2023-10-31T04:32:49;11.90;99.90
5226;DHT22;2632;51.666;7.146;2023-10-31T04:35:15;11.90;99.90
5226;DHT22;2632;51.666;7.146;2023-10-31T04:37:42;11.90;99.90
5226;DHT22;2632;51.666;7.146;2023-10-31T04:40:10;11.80;99.90
5226;DHT22;2632;51.666;7.146;2023-10-31T04:42:38;11.80;99.90
5226;DHT22;2632;51.666;7.146;2023-10-31T04:45:06;11.80;99.90
5226;DHT22;2632;51.666;7.146;2023-10-31T04:47:33;11.90;99.90
5226;DHT22;2632;51.666;7.146;2023-10-31T04:50:00;11.90;99.90
5226;DHT22;2632;51.666;7.146;2023-10-31T04:52:27;11.90;99.90
5226;DHT22;2632;51.666;7.146;2023-10-31T04:54:54;11.90;99.90
5226;DHT22;2632;51.666;7.146;2023-10-31T04:57:20;11.90;99.90
5226;DHT22;2632;51.666;7.146;2023-10-31T04:59:47;11.80;99.90
5226;DHT22;2632;51.666;7.146;2023-10-31T05:02:14;11.90;99.90
5226;DHT22;2632;51.666;7.146;2023-10-31T05:04:41;11.90;99.90
5226;DHT22;2632;51.666;7.146;2023-10-31T05:07:08;12.00;99.90
5226;DHT22;2632;51.666;7.146;2023-10-31T05:09:35;11.90;99.90
5226;DHT22;2632;51.666;7.146;2023-10-31T05:12:02;11.90;99.90
5226;DHT22;2632;51.666;7.146;2023-10-31T05:14:29;11.90;99.90
5226;DHT22;2632;51.666;7.146;2023-10-31T05:16:55;11.90;99.90
5226;DHT22;2632;51.666;7.146;2023-10-31T05:19:22;11.90;99.90
5226;DHT22;2632;51.666;7.146;2023-10-31T05:21:48;11.90;99.90
5226;DHT22;2632;51.666;7.146;2023-10-31T05:24:15;11.90;99.90
5226;DHT22;2632;51.666;7.146;2023-10-31T05:26:42;11.90;99.90
5226;DHT22;2632;51.666;7.146;2023-10-31T05:29:10;11.90;99.90
5226;DHT22;2632;51.666;7.146;2023-10-31T05:31:37;12.00;99.90
5226;DHT22;2632;51.666;7.146;2023-10-31T05:34:04;12.00;99.90
5226;DHT22;2632;51.666;7.146;2023-10-31T05:36:30;12.00;99.90
5226;DHT22;2632;51.666;7.146;2023-10-31T05:38:57;12.00;99.90
5226;DHT22;2632;51.666;7.146;2023-10-31T05:41:24;12.00;99.90
5226;DHT22;2632;51.666;7.146;2023-10-31T05:43:50;12.00;99.90
5226;DHT22;2632;51.666;7.146;2023-10-31T05:46:17;12.00;99.90
5226;DHT22;2632;51.666;7.146;2023-10-31T05:48:45;12.00;99.90
5226;DHT22;2632;51.666;7.146;2023-10-31T05:51:17;12.00;99.90
5226;DHT22;2632;51.666;7.146;2023-10-31T05:53:46;12.10;99.90
5226;DHT22;2632;51.666;7.146;2023-10-31T05:56:14;12.10;99.90
5226;DHT22;2632;51.666;7.146;2023-10-31T05:58:42;12.00;99.90
5226;DHT22;2632;51.666;7.146;2023-10-31T06:01:09;12.00;99.90
5226;DHT22;2632;51.666;7.146;2023-10-31T06:03:36;12.00;99.90
5226;DHT22;2632;51.666;7.146;2023-10-31T06:06:03;12.10;99.90
5226;DHT22;2632;51.666;7.146;2023-10-31T06:08:30;12.00;99.90
5226;DHT22;2632;51.666;7.146;2023-10-31T06:10:57;12.00;99.90
5226;DHT22;2632;51.666;7.146;2023-10-31T06:13:24;11.90;99.90
5226;DHT22;2632;51.666;7.146;2023-10-31T06:15:55;11.90;99.90
5226;DHT22;2632;51.666;7.146;2023-10-31T06:18:27;11.90;99.90
5226;DHT22;2632;51.666;7.146;2023-10-31T06:20:54;11.90;99.90
5226;DHT22;2632;51.666;7.146;2023-10-31T06:23:21;11.90;99.90
5226;DHT22;2632;51.666;7.146;2023-10-31T06:25:48;11.90;99.90
5226;DHT22;2632;51.666;7.146;2023-10-31T06:28:15;11.90;99.90
5226;DHT22;2632;51.666;7.146;2023-10-31T06:30:41;11.90;99.90
5226;DHT22;2632;51.666;7.146;2023-10-31T06:33:08;11.90;99.90
5226;DHT22;2632;51.666;7.146;2023-10-31T06:35:36;11.90;99.90
5226;DHT22;2632;51.666;7.146;2023-10-31T06:38:03;11.90;99.90
5226;DHT22;2632;51.666;7.146;2023-10-31T06:40:30;11.90;99.90
5226;DHT22;2632;51.666;7.146;2023-10-31T06:42:57;11.90;99.90
5226;DHT22;2632;51.666;7.146;2023-10-31T06:45:23;12.00;99.90
5226;DHT22;2632;51.666;7.146;2023-10-31T06:47:50;12.10;99.90
5226;DHT22;2632;51.666;7.146;2023-10-31T06:50:17;12.20;99.90
5226;DHT22;2632;51.666;7.146;2023-10-31T06:52:46;12.00;99.90
5226;DHT22;2632;51.666;7.146;2023-10-31T06:55:13;12.00;99.90
5226;DHT22;2632;51.666;7.146;2023-10-31T06:57:40;12.00;99.90
5226;DHT22;2632;51.666;7.146;2023-10-31T07:00:06;12.00;99.90
5226;DHT22;2632;51.666;7.146;2023-10-31T07:02:36;12.00;99.90
5226;DHT22;2632;51.666;7.146;2023-10-31T07:05:04;12.00;99.90
5226;DHT22;2632;51.666;7.146;2023-10-31T07:07:31;12.00;99.90
5226;DHT22;2632;51.666;7.146;2023-10-31T07:09:57;12.00;99.90
5226;DHT22;2632;51.666;7.146;2023-10-31T07:12:24;12.10;99.90
5226;DHT22;2632;51.666;7.146;2023-10-31T07:14:51;12.10;99.90
5226;DHT22;2632;51.666;7.146;2023-10-31T07:17:18;12.10;99.90
5226;DHT22;2632;51.666;7.146;2023-10-31T07:19:45;12.00;99.90
5226;DHT22;2632;51.666;7.146;2023-10-31T07:22:11;12.00;99.90
5226;DHT22;2632;51.666;7.146;2023-10-31T07:24:40;12.00;99.90
5226;DHT22;2632;51.666;7.146;2023-10-31T07:27:09;12.10;99.90
5226;DHT22;2632;51.666;7.146;2023-10-31T07:29:39;12.10;99.90
5226;DHT22;2632;51.666;7.146;2023-10-31T07:32:08;12.10;99.90
5226;DHT22;2632;51.666;7.146;2023-10-31T07:34:40;12.20;99.90
5226;DHT22;2632;51.666;7.146;2023-10-31T07:37:06;12.30;99.90
5226;DHT22;2632;51.666;7.146;2023-10-31T07:39:33;12.30;99.90
5226;DHT22;2632;51.666;7.146;2023-10-31T07:42:00;12.40;99.90
5226;DHT22;2632;51.666;7.146;2023-10-31T07:44:26;12.60;99.90
5226;DHT22;2632;51.666;7.146;2023-10-31T07:46:53;13.00;99.90
5226;DHT22;2632;51.666;7.146;2023-10-31T07:49:20;13.20;99.90
5226;DHT22;2632;51.666;7.146;2023-10-31T07:51:47;13.00;99.90
5226;DHT22;2632;51.666;7.146;2023-10-31T07:54:15;12.80;99.90
5226;DHT22;2632;51.666;7.146;2023-10-31T07:56:42;12.60;99.90
5226;DHT22;2632;51.666;7.146;2023-10-31T07:59:09;12.60;99.90
5226;DHT22;2632;51.666;7.146;2023-10-31T08:01:36;12.60;99.90
5226;DHT22;2632;51.666;7.146;2023-10-31T08:04:03;12.70;99.90
5226;DHT22;2632;51.666;7.146;2023-10-31T08:06:30;12.70;99.90
5226;DHT22;2632;51.666;7.146;2023-10-31T08:08:56;12.70;99.90
5226;DHT22;2632;51.666;7.146;2023-10-31T08:11:23;12.70;99.90
5226;DHT22;2632;51.666;7.146;2023-10-31T08:13:50;12.80;99.90
5226;DHT22;2632;51.666;7.146;2023-10-31T08:16:17;12.90;99.90
5226;DHT22;2632;51.666;7.146;2023-10-31T08:18:46;12.90;99.90
5226;DHT22;2632;51.666;7.146;2023-10-31T08:21:12;12.90;99.90
5226;DHT22;2632;51.666;7.146;2023-10-31T08:23:39;12.80;99.90
5226;DHT22;2632;51.666;7.146;2023-10-31T08:26:06;12.90;99.90
5226;DHT22;2632;51.666;7.146;2023-10-31T08:28:33;12.90;99.90
5226;DHT22;2632;51.666;7.146;2023-10-31T08:31:00;13.00;99.90
5226;DHT22;2632;51.666;7.146;2023-10-31T08:33:26;13.10;99.90
5226;DHT22;2632;51.666;7.146;2023-10-31T08:35:53;13.20;99.90
5226;DHT22;2632;51.666;7.146;2023-10-31T08:38:20;13.30;99.90
5226;DHT22;2632;51.666;7.146;2023-10-31T08:40:57;13.40;99.90
5226;DHT22;2632;51.666;7.146;2023-10-31T08:43:24;13.30;99.90
5226;DHT22;2632;51.666;7.146;2023-10-31T08:45:51;13.30;99.90
5226;DHT22;2632;51.666;7.146;2023-10-31T08:48:17;13.20;99.90
5226;DHT22;2632;51.666;7.146;2023-10-31T08:50:44;13.20;99.90
5226;DHT22;2632;51.666;7.146;2023-10-31T08:53:11;13.10;99.90
5226;DHT22;2632;51.666;7.146;2023-10-31T08:55:38;13.10;99.90
5226;DHT22;2632;51.666;7.146;2023-10-31T08:58:05;13.00;99.90
5226;DHT22;2632;51.666;7.146;2023-10-31T09:00:31;13.10;99.90
5226;DHT22;2632;51.666;7.146;2023-10-31T09:02:58;13.10;99.90
5226;DHT22;2632;51.666;7.146;2023-10-31T09:05:25;13.00;99.90
5226;DHT22;2632;51.666;7.146;2023-10-31T09:07:52;13.00;99.90
5226;DHT22;2632;51.666;7.146;2023-10-31T09:10:21;13.00;99.90
5226;DHT22;2632;51.666;7.146;2023-10-31T09:12:48;13.10;99.90
5226;DHT22;2632;51.666;7.146;2023-10-31T09:15:15;13.20;99.90
5226;DHT22;2632;51.666;7.146;2023-10-31T09:17:41;13.40;99.90
5226;DHT22;2632;51.666;7.146;2023-10-31T09:20:08;13.40;99.90
5226;DHT22;2632;51.666;7.146;2023-10-31T09:22:35;13.30;99.90
5226;DHT22;2632;51.666;7.146;2023-10-31T09:25:02;13.30;99.90
5226;DHT22;2632;51.666;7.146;2023-10-31T09:27:29;13.20;99.90
5226;DHT22;2632;51.666;7.146;2023-10-31T09:29:55;13.10;99.90
5226;DHT22;2632;51.666;7.146;2023-10-31T09:32:22;13.20;99.90
5226;DHT22;2632;51.666;7.146;2023-10-31T09:34:49;13.10;99.90
5226;DHT22;2632;51.666;7.146;2023-10-31T09:37:15;13.10;99.90
5226;DHT22;2632;51.666;7.146;2023-10-31T09:39:43;13.00;99.90
5226;DHT22;2632;51.666;7.146;2023-10-31T09:42:10;13.00;99.90
5226;DHT22;2632;51.666;7.146;2023-10-31T09:44:36;13.10;99.90
5226;DHT22;2632;51.666;7.146;2023-10-31T09:47:03;13.20;99.90
5226;DHT22;2632;51.666;7.146;2023-10-31T09:49:32;13.70;99.90
5226;DHT22;2632;51.666;7.146;2023-10-31T09:52:01;13.90;99.90
5226;DHT22;2632;51.666;7.146;2023-10-31T09:54:30;14.50;99.90
5226;DHT22;2632;51.666;7.146;2023-10-31T09:56:57;14.40;99.90
5226;DHT22;2632;51.666;7.146;2023-10-31T09:59:24;14.50;99.90
5226;DHT22;2632;51.666;7.146;2023-10-31T10:01:50;14.70;99.90
5226;DHT22;2632;51.666;7.146;2023-10-31T10:04:17;14.70;99.90
5226;DHT22;2632;51.666;7.146;2023-10-31T10:07:13;14.60;99.90
5226;DHT22;2632;51.666;7.146;2023-10-31T10:09:42;14.70;99.90
5226;DHT22;2632;51.666;7.146;2023-10-31T10:12:12;14.50;99.90
5226;DHT22;2632;51.666;7.146;2023-10-31T10:14:42;14.40;99.90
5226;DHT22;2632;51.666;7.146;2023-10-31T10:17:21;14.40;99.90
5226;DHT22;2632;51.666;7.146;2023-10-31T10:20:08;14.40;99.90
5226;DHT22;2632;51.666;7.146;2023-10-31T10:22:40;14.30;99.90
5226;DHT22;2632;51.666;7.146;2023-10-31T10:25:07;14.40;99.90
5226;DHT22;2632;51.666;7.146;2023-10-31T10:27:34;14.30;99.90
5226;DHT22;2632;51.666;7.146;2023-10-31T10:30:03;14.20;99.90
5226;DHT22;2632;51.666;7.146;2023-10-31T10:32:30;14.20;99.90
5226;DHT22;2632;51.666;7.146;2023-10-31T10:34:57;14.10;99.90
5226;DHT22;2632;51.666;7.146;2023-10-31T10:37:26;14.10;99.90
5226;DHT22;2632;51.666;7.146;2023-10-31T10:39:53;14.10;99.90
5226;DHT22;2632;51.666;7.146;2023-10-31T10:45:02;14.00;99.90
5226;DHT22;2632;51.666;7.146;2023-10-31T10:47:33;13.80;99.90
5226;DHT22;2632;51.666;7.146;2023-10-31T10:50:01;13.70;99.90
5226;DHT22;2632;51.666;7.146;2023-10-31T10:53:16;13.60;99.90
5226;DHT22;2632;51.666;7.146;2023-10-31T10:55:28;13.80;99.90
5226;DHT22;2632;51.666;7.146;2023-10-31T10:58:01;13.80;99.90
5226;DHT22;2632;51.666;7.146;2023-10-31T11:00:31;13.70;99.90
5226;DHT22;2632;51.666;7.146;2023-10-31T11:02:59;13.60;99.90
5226;DHT22;2632;51.666;7.146;2023-10-31T11:05:27;13.70;99.90
5226;DHT22;2632;51.666;7.146;2023-10-31T11:07:56;13.70;99.90
5226;DHT22;2632;51.666;7.146;2023-10-31T11:10:27;13.60;99.90
5226;DHT22;2632;51.666;7.146;2023-10-31T11:12:53;13.60;99.90
5226;DHT22;2632;51.666;7.146;2023-10-31T11:15:21;13.70;99.90
5226;DHT22;2632;51.666;7.146;2023-10-31T11:17:50;13.80;99.90
5226;DHT22;2632;51.666;7.146;2023-10-31T11:20:17;13.90;99.90
5226;DHT22;2632;51.666;7.146;2023-10-31T11:22:46;13.90;99.90
5226;DHT22;2632;51.666;7.146;2023-10-31T11:25:19;13.80;99.90
5226;DHT22;2632;51.666;7.146;2023-10-31T11:28:11;13.80;99.90
5226;DHT22;2632;51.666;7.146;2023-10-31T11:30:40;13.90;99.90
5226;DHT22;2632;51.666;7.146;2023-10-31T11:33:12;14.00;99.90
5226;DHT22;2632;51.666;7.146;2023-10-31T11:35:40;14.00;99.90
5226;DHT22;2632;51.666;7.146;2023-10-31T11:38:09;13.90;99.90
5226;DHT22;2632;51.666;7.146;2023-10-31T11:43:11;14.00;99.90
5226;DHT22;2632;51.666;7.146;2023-10-31T11:45:42;14.20;99.90
5226;DHT22;2632;51.666;7.146;2023-10-31T11:48:11;14.70;99.90
5226;DHT22;2632;51.666;7.146;2023-10-31T11:50:38;14.80;99.90
5226;DHT22;2632;51.666;7.146;2023-10-31T11:53:11;14.90;99.90
5226;DHT22;2632;51.666;7.146;2023-10-31T11:55:44;14.90;99.90
5226;DHT22;2632;51.666;7.146;2023-10-31T11:58:16;15.00;99.90
5226;DHT22;2632;51.666;7.146;2023-10-31T12:00:44;15.00;99.90
5226;DHT22;2632;51.666;7.146;2023-10-31T12:03:12;14.80;99.90
5226;DHT22;2632;51.666;7.146;2023-10-31T12:05:39;14.60;99.90
5226;DHT22;2632;51.666;7.146;2023-10-31T12:08:06;14.60;99.90
5226;DHT22;2632;51.666;7.146;2023-10-31T12:10:32;14.40;99.90
5226;DHT22;2632;51.666;7.146;2023-10-31T12:12:59;14.40;99.90
5226;DHT22;2632;51.666;7.146;2023-10-31T12:15:26;14.40;99.90
5226;DHT22;2632;51.666;7.146;2023-10-31T12:17:57;14.50;99.90
5226;DHT22;2632;51.666;7.146;2023-10-31T12:20:25;14.60;99.90
5226;DHT22;2632;51.666;7.146;2023-10-31T12:23:04;14.70;99.90
5226;DHT22;2632;51.666;7.146;2023-10-31T12:25:31;14.70;99.90
5226;DHT22;2632;51.666;7.146;2023-10-31T12:28:02;14.70;99.90
5226;DHT22;2632;51.666;7.146;2023-10-31T12:30:29;14.60;99.90
5226;DHT22;2632;51.666;7.146;2023-10-31T12:32:56;14.60;99.90
5226;DHT22;2632;51.666;7.146;2023-10-31T12:35:26;14.60;99.90
5226;DHT22;2632;51.666;7.146;2023-10-31T12:37:53;14.60;99.90
5226;DHT22;2632;51.666;7.146;2023-10-31T12:40:21;15.10;99.90
5226;DHT22;2632;51.666;7.146;2023-10-31T12:42:49;15.20;99.90
5226;DHT22;2632;51.666;7.146;2023-10-31T12:45:17;15.50;99.90
5226;DHT22;2632;51.666;7.146;2023-10-31T12:47:45;16.10;99.60
5226;DHT22;2632;51.666;7.146;2023-10-31T12:50:26;16.10;99.20
5226;DHT22;2632;51.666;7.146;2023-10-31T12:52:54;15.90;99.20
5226;DHT22;2632;51.666;7.146;2023-10-31T12:55:22;15.70;99.20
5226;DHT22;2632;51.666;7.146;2023-10-31T12:57:51;15.70;99.60
5226;DHT22;2632;51.666;7.146;2023-10-31T13:00:19;15.70;99.70
5226;DHT22;2632;51.666;7.146;2023-10-31T13:02:52;15.60;99.20
5226;DHT22;2632;51.666;7.146;2023-10-31T13:05:26;15.60;99.00
5226;DHT22;2632;51.666;7.146;2023-10-31T13:07:54;15.30;98.40
5226;DHT22;2632;51.666;7.146;2023-10-31T13:10:26;15.30;98.90
5226;DHT22;2632;51.666;7.146;2023-10-31T13:12:54;15.00;99.10
5226;DHT22;2632;51.666;7.146;2023-10-31T13:15:22;14.90;99.50
5226;DHT22;2632;51.666;7.146;2023-10-31T13:17:50;14.80;99.50
5226;DHT22;2632;51.666;7.146;2023-10-31T13:20:18;14.80;99.80
5226;DHT22;2632;51.666;7.146;2023-10-31T13:22:45;14.80;99.80
5226;DHT22;2632;51.666;7.146;2023-10-31T13:25:13;14.70;99.80
5226;DHT22;2632;51.666;7.146;2023-10-31T13:27:41;14.60;99.90
5226;DHT22;2632;51.666;7.146;2023-10-31T13:30:12;14.60;99.90
5226;DHT22;2632;51.666;7.146;2023-10-31T13:32:40;14.60;99.90
5226;DHT22;2632;51.666;7.146;2023-10-31T13:35:07;14.50;99.90
5226;DHT22;2632;51.666;7.146;2023-10-31T13:37:37;14.60;99.90
5226;DHT22;2632;51.666;7.146;2023-10-31T13:40:04;14.50;99.90
5226;DHT22;2632;51.666;7.146;2023-10-31T13:42:31;14.50;99.90
5226;DHT22;2632;51.666;7.146;2023-10-31T13:44:58;14.50;99.90
5226;DHT22;2632;51.666;7.146;2023-10-31T13:47:25;14.40;99.90
5226;DHT22;2632;51.666;7.146;2023-10-31T13:49:52;14.30;99.90
5226;DHT22;2632;51.666;7.146;2023-10-31T13:52:19;14.40;99.90
5226;DHT22;2632;51.666;7.146;2023-10-31T13:54:45;14.40;99.90
5226;DHT22;2632;51.666;7.146;2023-10-31T13:57:12;14.40;99.90
5226;DHT22;2632;51.666;7.146;2023-10-31T13:59:40;14.30;99.90
5226;DHT22;2632;51.666;7.146;2023-10-31T14:02:06;14.40;99.90
5226;DHT22;2632;51.666;7.146;2023-10-31T14:04:34;14.30;99.90
5226;DHT22;2632;51.666;7.146;2023-10-31T14:07:01;14.20;99.90
5226;DHT22;2632;51.666;7.146;2023-10-31T14:09:28;14.10;99.90
5226;DHT22;2632;51.666;7.146;2023-10-31T14:11:54;14.20;99.90
5226;DHT22;2632;51.666;7.146;2023-10-31T14:14:21;14.30;99.90
5226;DHT22;2632;51.666;7.146;2023-10-31T14:16:48;14.30;99.90
5226;DHT22;2632;51.666;7.146;2023-10-31T14:19:15;14.30;99.90
5226;DHT22;2632;51.666;7.146;2023-10-31T14:21:42;14.30;99.90
5226;DHT22;2632;51.666;7.146;2023-10-31T14:24:10;14.30;99.90
5226;DHT22;2632;51.666;7.146;2023-10-31T14:26:39;14.40;99.90
5226;DHT22;2632;51.666;7.146;2023-10-31T14:29:07;14.50;99.90
5226;DHT22;2632;51.666;7.146;2023-10-31T14:31:41;14.40;99.90
5226;DHT22;2632;51.666;7.146;2023-10-31T14:34:08;14.40;99.90
5226;DHT22;2632;51.666;7.146;2023-10-31T14:36:35;14.40;99.90
5226;DHT22;2632;51.666;7.146;2023-10-31T14:39:02;14.30;99.90
5226;DHT22;2632;51.666;7.146;2023-10-31T14:41:29;14.30;99.90
5226;DHT22;2632;51.666;7.146;2023-10-31T14:44:00;14.20;99.90
5226;DHT22;2632;51.666;7.146;2023-10-31T14:46:31;14.30;99.90
5226;DHT22;2632;51.666;7.146;2023-10-31T14:48:59;14.20;99.90
5226;DHT22;2632;51.666;7.146;2023-10-31T14:51:25;14.10;99.90
5226;DHT22;2632;51.666;7.146;2023-10-31T14:53:52;14.20;99.90
5226;DHT22;2632;51.666;7.146;2023-10-31T14:56:18;14.10;99.90
5226;DHT22;2632;51.666;7.146;2023-10-31T14:58:45;14.10;99.90
5226;DHT22;2632;51.666;7.146;2023-10-31T15:01:12;14.20;99.90
5226;DHT22;2632;51.666;7.146;2023-10-31T15:03:39;14.20;99.90
5226;DHT22;2632;51.666;7.146;2023-10-31T15:06:06;14.20;99.90
5226;DHT22;2632;51.666;7.146;2023-10-31T15:08:34;14.10;99.90
5226;DHT22;2632;51.666;7.146;2023-10-31T15:11:00;14.10;99.90
5226;DHT22;2632;51.666;7.146;2023-10-31T15:13:27;14.10;99.90
5226;DHT22;2632;51.666;7.146;2023-10-31T15:15:54;14.00;99.90
5226;DHT22;2632;51.666;7.146;2023-10-31T15:18:21;14.00;99.90
5226;DHT22;2632;51.666;7.146;2023-10-31T15:20:48;13.90;99.90
5226;DHT22;2632;51.666;7.146;2023-10-31T15:23:15;13.90;99.90
5226;DHT22;2632;51.666;7.146;2023-10-31T15:25:42;13.80;99.90
5226;DHT22;2632;51.666;7.146;2023-10-31T15:28:09;13.80;99.90
5226;DHT22;2632;51.666;7.146;2023-10-31T15:30:36;13.80;99.90
5226;DHT22;2632;51.666;7.146;2023-10-31T15:33:03;13.80;99.90
5226;DHT22;2632;51.666;7.146;2023-10-31T15:35:30;13.70;99.90
5226;DHT22;2632;51.666;7.146;2023-10-31T15:37:57;13.70;99.90
5226;DHT22;2632;51.666;7.146;2023-10-31T15:40:23;13.60;99.90
5226;DHT22;2632;51.666;7.146;2023-10-31T15:42:50;13.60;99.90
5226;DHT22;2632;51.666;7.146;2023-10-31T15:45:17;13.50;99.90
5226;DHT22;2632;51.666;7.146;2023-10-31T15:47:43;13.50;99.90
5226;DHT22;2632;51.666;7.146;2023-10-31T15:50:10;13.40;99.90
5226;DHT22;2632;51.666;7.146;2023-10-31T15:52:37;13.40;99.90
5226;DHT22;2632;51.666;7.146;2023-10-31T15:55:04;13.40;99.90
5226;DHT22;2632;51.666;7.146;2023-10-31T15:57:31;13.40;99.90
5226;DHT22;2632;51.666;7.146;2023-10-31T15:59:58;13.30;99.90
5226;DHT22;2632;51.666;7.146;2023-10-31T16:02:28;13.30;99.90
5226;DHT22;2632;51.666;7.146;2023-10-31T16:04:55;13.20;99.90
5226;DHT22;2632;51.666;7.146;2023-10-31T16:07:22;13.20;99.90
5226;DHT22;2632;51.666;7.146;2023-10-31T16:09:49;13.20;99.90